createdAt,value
2023-03-11T00:00:42.928Z,94236.84
2023-03-11T00:03:18.492Z,94234.75
2023-03-11T00:05:51.739Z,94240.09
2023-03-11T00:08:25.614Z,94249.81
2023-03-11T00:11:01.532Z,94261.22
2023-03-11T00:13:33.465Z,94251.53
2023-03-11T00:16:05.664Z,94256.47
2023-03-11T00:18:37.219Z,94271.28
2023-03-11T00:21:16.480Z,94264.84
2023-03-11T00:23:48.443Z,94258.47
2023-03-11T00:26:21.386Z,94258.56
2023-03-11T00:28:53.029Z,94268.88
2023-03-11T00:31:26.889Z,94267.63
2023-03-11T00:33:58.699Z,94284.31
2023-03-11T00:36:32.208Z,94282.94
2023-03-11T00:39:08.210Z,94284.16
2023-03-11T00:41:39.966Z,94300.91
2023-03-11T00:44:13.047Z,94291.16
2023-03-11T00:46:44.859Z,94308.72
2023-03-11T00:49:16.412Z,94306.16
2023-03-11T00:51:48.013Z,94304.91
2023-03-11T00:54:19.563Z,94300.31
2023-03-11T00:56:51.108Z,94295.59
2023-03-11T00:59:22.799Z,94303.13
2023-03-11T01:01:54.639Z,94306.56
2023-03-11T01:04:27.390Z,94305.06
2023-03-11T01:06:59.161Z,94297.31
2023-03-11T01:09:30.656Z,94306.13
2023-03-11T01:12:03.320Z,94290.69
2023-03-11T01:14:36.399Z,94295.97
2023-03-11T01:17:09.522Z,94293.66
2023-03-11T01:19:41.155Z,94310.75
2023-03-11T01:22:12.857Z,94302.03
2023-03-11T01:24:44.545Z,94312.06
2023-03-11T01:27:16.295Z,94316.22
2023-03-11T01:29:47.815Z,94313.34
2023-03-11T01:32:19.933Z,94313.50
2023-03-11T01:34:51.444Z,94312.63
2023-03-11T01:37:23.310Z,94312.75
2023-03-11T01:39:57.616Z,94316.50
2023-03-11T01:42:30.789Z,94310.13
2023-03-11T01:45:02.327Z,94313.44
2023-03-11T01:47:37.850Z,94315.50
2023-03-11T01:50:13.958Z,94304.13
2023-03-11T01:52:45.850Z,94319.38
2023-03-11T01:55:19.154Z,94312.81
2023-03-11T01:57:53.161Z,94311.94
2023-03-11T02:00:25.061Z,94329.25
2023-03-11T02:03:00.788Z,94309.13
2023-03-11T02:05:35.941Z,94291.34
2023-03-11T02:08:08.235Z,94303.25
2023-03-11T02:10:42.567Z,94292.19
2023-03-11T02:13:14.337Z,94283.78
2023-03-11T02:15:46.399Z,94301.25
2023-03-11T02:18:20.350Z,94299.84
2023-03-11T02:21:10.195Z,94312.34
2023-03-11T02:23:53.862Z,94308.16
2023-03-11T02:26:41.182Z,94315.72
2023-03-11T02:29:13.350Z,94324.13
2023-03-11T02:31:46.285Z,94318.44
2023-03-11T02:34:32.738Z,94337.69
2023-03-11T02:37:07.090Z,94335.19
2023-03-11T02:39:40.382Z,94326.66
2023-03-11T02:42:32.797Z,94351.06
2023-03-11T02:45:13.865Z,94339.34
2023-03-11T02:47:45.391Z,94340.44
2023-03-11T02:50:19.091Z,94339.34
2023-03-11T02:52:52.076Z,94345.81
2023-03-11T02:55:23.990Z,94353.56
2023-03-11T02:57:55.545Z,94345.59
2023-03-11T03:00:27.254Z,94343.59
2023-03-11T03:02:58.798Z,94344.59
2023-03-11T03:05:30.589Z,94350.28
2023-03-11T03:08:02.959Z,94368.41
2023-03-11T03:10:34.448Z,94355.63
2023-03-11T03:13:06.283Z,94350.28
2023-03-11T03:15:38.835Z,94370.28
2023-03-11T03:18:10.343Z,94377.59
2023-03-11T03:20:41.854Z,94371.81
2023-03-11T03:23:13.460Z,94369.94
2023-03-11T03:25:45.710Z,94378.16
2023-03-11T03:28:17.774Z,94372.66
2023-03-11T03:30:49.281Z,94370.16
2023-03-11T03:33:20.784Z,94370.38
2023-03-11T03:35:52.320Z,94352.03
2023-03-11T03:38:23.998Z,94353.44
2023-03-11T03:40:55.951Z,94366.84
2023-03-11T03:43:27.564Z,94385.00
2023-03-11T03:46:01.895Z,94377.91
2023-03-11T03:48:33.812Z,94375.28
2023-03-11T03:51:13.213Z,94361.22
2023-03-11T03:53:46.557Z,94355.72
2023-03-11T03:56:18.971Z,94357.81
2023-03-11T03:58:50.382Z,94359.13
2023-03-11T04:01:22.349Z,94368.50
2023-03-11T04:03:53.892Z,94376.72
2023-03-11T04:06:26.883Z,94380.44
2023-03-11T04:08:58.395Z,94380.81
2023-03-11T04:11:29.983Z,94381.72
2023-03-11T04:14:02.519Z,94377.47
2023-03-11T04:16:34.144Z,94378.25
2023-03-11T04:19:08.442Z,94374.19
2023-03-11T04:21:40.344Z,94383.06
2023-03-11T04:24:11.873Z,94379.09
2023-03-11T04:26:43.410Z,94381.72
2023-03-11T04:29:17.617Z,94384.53
2023-03-11T04:31:49.330Z,94388.50
2023-03-11T04:34:20.912Z,94380.63
2023-03-11T04:36:54.002Z,94383.25
2023-03-11T04:39:25.513Z,94397.13
2023-03-11T04:41:57.213Z,94398.31
2023-03-11T04:44:28.873Z,94397.53
2023-03-11T04:47:00.419Z,94404.31
2023-03-11T04:49:31.897Z,94411.31
2023-03-11T04:52:03.681Z,94396.78
2023-03-11T04:54:35.554Z,94403.22
2023-03-11T04:57:07.212Z,94408.47
2023-03-11T04:59:38.803Z,94409.56
2023-03-11T05:02:12.867Z,94399.09
2023-03-11T05:04:45.397Z,94400.84
2023-03-11T05:07:16.825Z,94408.50
2023-03-11T05:09:48.370Z,94408.81
2023-03-11T05:12:20.450Z,94414.94
2023-03-11T05:14:52.277Z,94419.97
2023-03-11T05:17:24.871Z,94421.72
2023-03-11T05:19:57.495Z,94429.84
2023-03-11T05:22:29.061Z,94425.78
2023-03-11T05:25:00.693Z,94430.69
2023-03-11T05:27:33.120Z,94429.59
2023-03-11T05:30:04.682Z,94434.72
2023-03-11T05:32:36.281Z,94442.13
2023-03-11T05:35:08.331Z,94445.53
2023-03-11T05:37:41.292Z,94468.91
2023-03-11T05:40:12.851Z,94464.59
2023-03-11T05:42:45.496Z,94459.19
2023-03-11T05:45:17.029Z,94459.09
2023-03-11T05:47:48.557Z,94472.88
2023-03-11T05:50:20.140Z,94466.88
2023-03-11T05:52:51.727Z,94462.31
2023-03-11T05:55:23.223Z,94464.78
2023-03-11T05:57:54.975Z,94461.22
2023-03-11T06:00:29.311Z,94452.88
2023-03-11T06:03:00.817Z,94454.97
2023-03-11T06:05:32.276Z,94459.56
2023-03-11T06:08:03.988Z,94473.69
2023-03-11T06:10:35.501Z,94473.47
2023-03-11T06:13:07.035Z,94481.69
2023-03-11T06:15:38.606Z,94483.78
2023-03-11T06:18:10.883Z,94496.44
2023-03-11T06:20:42.702Z,94492.94
2023-03-11T06:23:14.498Z,94498.28
2023-03-11T06:25:58.678Z,94490.47
2023-03-11T06:28:30.810Z,94489.81
2023-03-11T06:31:15.496Z,94498.81
2023-03-11T06:33:48.381Z,94506.50
2023-03-11T06:36:20.670Z,94503.16
2023-03-11T06:38:53.614Z,94514.41
2023-03-11T06:41:25.749Z,94511.91
2023-03-11T06:43:59.677Z,94508.44
2023-03-11T06:46:31.273Z,94509.91
2023-03-11T06:49:03.089Z,94518.72
2023-03-11T06:51:34.852Z,94516.31
2023-03-11T06:54:07.150Z,94520.50
2023-03-11T06:56:38.719Z,94521.88
2023-03-11T06:59:10.666Z,94537.81
2023-03-11T07:01:42.152Z,94532.84
2023-03-11T07:04:13.699Z,94536.50
2023-03-11T07:06:45.275Z,94545.19
2023-03-11T07:09:17.103Z,94542.63
2023-03-11T07:11:48.803Z,94550.09
2023-03-11T07:14:20.567Z,94555.59
2023-03-11T07:16:52.475Z,94563.72
2023-03-11T07:19:24.113Z,94568.19
2023-03-11T07:21:55.761Z,94572.72
2023-03-11T07:24:28.939Z,94576.63
2023-03-11T07:27:00.523Z,94580.88
2023-03-11T07:29:32.349Z,94584.81
2023-03-11T07:32:04.134Z,94591.31
2023-03-11T07:34:36.005Z,94590.50
2023-03-11T07:37:07.572Z,94605.72
2023-03-11T07:39:39.524Z,94607.72
2023-03-11T07:42:11.340Z,94604.53
2023-03-11T07:44:42.953Z,94610.81
2023-03-11T07:47:14.441Z,94612.78
2023-03-11T07:49:46.991Z,94622.16
2023-03-11T07:52:18.950Z,94619.03
2023-03-11T07:54:50.528Z,94619.34
2023-03-11T07:57:22.431Z,94634.91
2023-03-11T07:59:53.965Z,94620.19
2023-03-11T08:02:25.592Z,94624.91
2023-03-11T08:04:57.555Z,94627.41
2023-03-11T08:07:31.709Z,94621.66
2023-03-11T08:10:04.313Z,94621.31
2023-03-11T08:12:37.027Z,94621.09
2023-03-11T08:15:09.328Z,94620.91
2023-03-11T08:17:40.855Z,94625.22
2023-03-11T08:20:12.784Z,94637.72
2023-03-11T08:22:57.353Z,94652.19
2023-03-11T08:25:30.190Z,94639.56
2023-03-11T08:28:01.727Z,94650.91
2023-03-11T08:30:34.349Z,94654.41
2023-03-11T08:33:06.085Z,94647.88
2023-03-11T08:35:37.823Z,94649.19
2023-03-11T08:38:09.799Z,94645.91
2023-03-11T08:40:41.406Z,94637.59
2023-03-11T08:43:13.925Z,94653.03
2023-03-11T08:45:45.366Z,94649.00
2023-03-11T08:48:17.150Z,94646.47
2023-03-11T08:50:54.359Z,94656.00
2023-03-11T08:53:26.312Z,94658.28
2023-03-11T08:55:57.851Z,94660.69
2023-03-11T08:58:30.050Z,94663.19
2023-03-11T09:01:01.909Z,94669.56
2023-03-11T09:03:35.546Z,94671.19
2023-03-11T09:06:11.351Z,94666.81
2023-03-11T09:08:43.978Z,94670.03
2023-03-11T09:11:17.984Z,94672.00
2023-03-11T09:13:49.941Z,94660.06
2023-03-11T09:16:23.095Z,94657.41
2023-03-11T09:18:55.040Z,94667.81
2023-03-11T09:21:26.595Z,94664.31
2023-03-11T09:23:58.298Z,94664.56
2023-03-11T09:26:31.094Z,94665.19
2023-03-11T09:29:02.739Z,94658.94
2023-03-11T09:31:34.256Z,94664.88
2023-03-11T09:34:06.016Z,94656.97
2023-03-11T09:36:37.714Z,94664.44
2023-03-11T09:39:09.552Z,94670.03
2023-03-11T09:41:57.595Z,94658.72
2023-03-11T09:44:40.131Z,94673.09
2023-03-11T09:47:38.019Z,94669.34
2023-03-11T09:50:16.589Z,94685.69
2023-03-11T09:53:11.838Z,94674.06
2023-03-11T09:55:45.143Z,94684.00
2023-03-11T09:58:39.337Z,94678.41
2023-03-11T10:01:20.852Z,94675.59
2023-03-11T10:03:56.552Z,94690.94
2023-03-11T10:06:31.623Z,94687.88
2023-03-11T10:09:40.431Z,94680.53
2023-03-11T10:12:20.181Z,94692.59
2023-03-11T10:15:06.743Z,94692.16
2023-03-11T10:18:16.253Z,94700.22
2023-03-11T10:21:06.278Z,94686.00
2023-03-11T10:24:05.132Z,94689.88
2023-03-11T10:26:41.646Z,94696.66
2023-03-11T10:29:18.255Z,94702.50
2023-03-11T10:32:10.759Z,94713.97
2023-03-11T10:34:54.770Z,94710.19
2023-03-11T10:37:48.402Z,94702.94
2023-03-11T10:40:33.331Z,94707.03
2023-03-11T10:43:12.390Z,94697.94
2023-03-11T10:45:46.109Z,94706.72
2023-03-11T10:48:19.770Z,94701.06
2023-03-11T10:51:18.023Z,94696.47
2023-03-11T10:53:54.837Z,94703.72
2023-03-11T10:56:35.596Z,94703.81
2023-03-11T10:59:30.033Z,94704.66
2023-03-11T11:02:04.427Z,94704.50
2023-03-11T11:04:39.582Z,94704.72
2023-03-11T11:07:35.351Z,94695.97
2023-03-11T11:10:16.215Z,94708.56
2023-03-11T11:12:59.012Z,94708.28
2023-03-11T11:15:40.397Z,94704.47
2023-03-11T11:18:14.813Z,94700.13
2023-03-11T11:21:04.746Z,94709.84
2023-03-11T11:23:39.340Z,94717.00
2023-03-11T11:26:25.883Z,94713.00
2023-03-11T11:29:09.743Z,94714.53
2023-03-11T11:31:44.802Z,94721.25
2023-03-11T11:34:40.102Z,94705.97
2023-03-11T11:37:13.584Z,94699.59
2023-03-11T11:39:54.742Z,94692.00
2023-03-11T11:42:31.396Z,94684.66
2023-03-11T11:45:12.232Z,94694.47
2023-03-11T11:47:48.345Z,94692.38
2023-03-11T11:50:41.992Z,94689.16
2023-03-11T11:53:29.677Z,94700.91
2023-03-11T11:56:03.921Z,94694.66
2023-03-11T11:58:37.624Z,94698.44
2023-03-11T12:01:51.168Z,94689.66
2023-03-11T12:04:45.864Z,94677.19
2023-03-11T12:07:31.098Z,94683.38
2023-03-11T12:10:28.614Z,94684.41
2023-03-11T12:13:18.248Z,94678.59
2023-03-11T12:15:59.930Z,94669.19
2023-03-11T12:18:57.004Z,94674.44
2023-03-11T12:21:45.790Z,94668.22
2023-03-11T12:24:50.841Z,94666.09
2023-03-11T12:27:32.724Z,94669.78
2023-03-11T12:30:14.872Z,94658.97
2023-03-11T12:32:52.599Z,94653.81
2023-03-11T12:35:28.059Z,94670.53
2023-03-11T12:38:17.370Z,94659.22
2023-03-11T12:41:06.789Z,94662.25
2023-03-11T12:43:38.551Z,94661.75
2023-03-11T12:46:11.799Z,94655.19
2023-03-11T12:49:08.384Z,94665.63
2023-03-11T12:51:41.150Z,94657.22
2023-03-11T12:54:32.367Z,94656.88
2023-03-11T12:57:34.243Z,94656.22
2023-03-11T13:00:18.199Z,94653.69
2023-03-11T13:03:11.245Z,94659.22
2023-03-11T13:05:57.539Z,94646.56
2023-03-11T13:08:54.748Z,94643.06
2023-03-11T13:11:32.185Z,94643.16
2023-03-11T13:14:16.400Z,94656.34
2023-03-11T13:16:48.619Z,94651.03
2023-03-11T13:19:26.460Z,94649.28
2023-03-11T13:22:00.412Z,94642.81
2023-03-11T13:24:34.443Z,94647.56
2023-03-11T13:27:20.517Z,94639.69
2023-03-11T13:30:02.242Z,94637.16
2023-03-11T13:33:05.032Z,94646.59
2023-03-11T13:35:54.388Z,94642.22
2023-03-11T13:38:57.951Z,94648.78
2023-03-11T13:41:36.149Z,94644.88
2023-03-11T13:44:19.748Z,94639.59
2023-03-11T13:47:03.069Z,94641.41
2023-03-11T13:49:40.289Z,94648.53
2023-03-11T13:52:18.702Z,94650.22
2023-03-11T13:55:02.601Z,94658.88
2023-03-11T13:57:36.970Z,94645.47
2023-03-11T14:00:18.604Z,94654.50
2023-03-11T14:02:56.010Z,94647.88
2023-03-11T14:05:31.968Z,94650.50
2023-03-11T14:08:34.956Z,94658.91
2023-03-11T14:11:12.368Z,94652.41
2023-03-11T14:13:50.082Z,94659.84
2023-03-11T14:16:36.142Z,94660.34
2023-03-11T14:19:29.059Z,94651.78
2023-03-11T14:22:00.568Z,94656.22
2023-03-11T14:24:32.551Z,94654.06
2023-03-11T14:27:07.185Z,94661.13
2023-03-11T14:29:40.401Z,94663.00
2023-03-11T14:32:30.687Z,94661.75
2023-03-11T14:35:02.579Z,94657.59
2023-03-11T14:37:34.336Z,94671.53
2023-03-11T14:40:39.250Z,94663.47
2023-03-11T14:43:11.785Z,94674.84
2023-03-11T14:45:43.820Z,94675.88
2023-03-11T14:48:22.158Z,94670.88
2023-03-11T14:50:56.582Z,94679.25
2023-03-11T14:53:43.240Z,94680.03
2023-03-11T14:56:24.738Z,94676.66
2023-03-11T14:59:07.682Z,94679.53
2023-03-11T15:01:42.540Z,94695.03
2023-03-11T15:04:36.627Z,94684.47
2023-03-11T15:07:08.207Z,94684.25
2023-03-11T15:09:41.361Z,94690.41
2023-03-11T15:12:34.539Z,94688.44
2023-03-11T15:15:25.915Z,94695.47
2023-03-11T15:18:01.527Z,94694.53
2023-03-11T15:20:37.229Z,94694.44
2023-03-11T15:23:21.803Z,94696.16
2023-03-11T15:25:53.390Z,94704.13
2023-03-11T15:28:29.147Z,94702.34
2023-03-11T15:31:22.538Z,94695.00
2023-03-11T15:33:54.404Z,94705.09
2023-03-11T15:36:34.839Z,94702.16
2023-03-11T15:39:11.320Z,94701.44
2023-03-11T15:42:02.165Z,94708.94
2023-03-11T15:44:41.341Z,94709.00
2023-03-11T15:47:15.310Z,94717.41
2023-03-11T15:49:47.217Z,94725.34
2023-03-11T15:52:19.754Z,94718.53
2023-03-11T15:54:55.831Z,94734.09
2023-03-11T15:57:29.925Z,94735.13
2023-03-11T16:00:02.350Z,94741.50
2023-03-11T16:02:33.882Z,94746.72
2023-03-11T16:05:13.922Z,94741.41
2023-03-11T16:07:46.808Z,94746.97
2023-03-11T16:10:22.232Z,94740.34
2023-03-11T16:12:53.916Z,94733.44
2023-03-11T16:15:31.593Z,94725.09
2023-03-11T16:18:09.061Z,94735.22
2023-03-11T16:20:44.193Z,94735.81
2023-03-11T16:23:27.083Z,94744.13
2023-03-11T16:26:02.039Z,94737.28
2023-03-11T16:28:33.702Z,94746.81
2023-03-11T16:31:05.432Z,94755.09
2023-03-11T16:33:40.512Z,94765.53
2023-03-11T16:36:12.027Z,94764.16
2023-03-11T16:38:47.070Z,94776.47
2023-03-11T16:41:18.911Z,94776.72
2023-03-11T16:43:50.547Z,94780.84
2023-03-11T16:46:22.154Z,94783.56
2023-03-11T16:48:53.748Z,94782.53
2023-03-11T16:51:25.273Z,94796.28
2023-03-11T16:53:57.009Z,94796.06
2023-03-11T16:56:28.658Z,94805.44
2023-03-11T16:59:01.199Z,94792.31
2023-03-11T17:01:33.089Z,94806.97
2023-03-11T17:04:07.963Z,94813.78
2023-03-11T17:06:40.197Z,94820.28
2023-03-11T17:09:11.785Z,94816.44
2023-03-11T17:11:43.350Z,94813.56
2023-03-11T17:14:16.778Z,94817.69
2023-03-11T17:16:48.501Z,94823.31
2023-03-11T17:19:20.145Z,94833.78
2023-03-11T17:21:51.962Z,94842.06
2023-03-11T17:24:23.467Z,94844.06
2023-03-11T17:26:55.052Z,94855.97
2023-03-11T17:29:26.601Z,94857.09
2023-03-11T17:31:58.476Z,94870.09
2023-03-11T17:34:30.124Z,94863.97
2023-03-11T17:37:01.667Z,94881.19
2023-03-11T17:39:33.292Z,94881.59
2023-03-11T17:42:05.062Z,94880.00
2023-03-11T17:44:50.520Z,94874.09
2023-03-11T17:47:25.978Z,94876.75
2023-03-11T17:49:57.697Z,94879.72
2023-03-11T17:52:29.576Z,94882.94
2023-03-11T17:55:01.101Z,94874.34
2023-03-11T17:57:44.481Z,94887.63
2023-03-11T18:00:17.207Z,94891.09
2023-03-11T18:02:51.218Z,94895.78
2023-03-11T18:05:23.897Z,94897.66
2023-03-11T18:07:55.521Z,94900.66
2023-03-11T18:10:27.162Z,94906.78
2023-03-11T18:12:58.632Z,94903.19
2023-03-11T18:15:30.373Z,94911.97
2023-03-11T18:18:01.899Z,94905.59
2023-03-11T18:20:33.454Z,94907.13
2023-03-11T18:23:05.543Z,94912.41
2023-03-11T18:25:37.050Z,94909.13
2023-03-11T18:28:08.599Z,94907.25
2023-03-11T18:30:40.581Z,94910.47
2023-03-11T18:33:13.108Z,94908.09
2023-03-11T18:35:44.697Z,94911.72
2023-03-11T18:38:16.489Z,94914.69
2023-03-11T18:40:48.048Z,94920.84
2023-03-11T18:43:19.511Z,94929.34
2023-03-11T18:45:51.042Z,94931.56
2023-03-11T18:48:22.863Z,94925.94
2023-03-11T18:50:55.285Z,94926.59
2023-03-11T18:53:26.830Z,94923.66
2023-03-11T18:56:00.562Z,94930.03
2023-03-11T18:58:32.087Z,94934.88
2023-03-11T19:01:15.616Z,94934.22
2023-03-11T19:03:53.975Z,94929.19
2023-03-11T19:06:28.109Z,94936.97
2023-03-11T19:08:59.768Z,94937.53
2023-03-11T19:11:31.305Z,94934.00
2023-03-11T19:14:03.074Z,94938.97
2023-03-11T19:16:34.704Z,94941.34
2023-03-11T19:19:06.738Z,94948.88
2023-03-11T19:21:38.327Z,94957.66
2023-03-11T19:24:11.465Z,94964.22
2023-03-11T19:26:45.702Z,94962.81
2023-03-11T19:29:19.772Z,94967.44
2023-03-11T19:31:51.686Z,94970.28
2023-03-11T19:34:23.368Z,94972.03
2023-03-11T19:36:57.146Z,94971.25
2023-03-11T19:39:28.636Z,94981.81
2023-03-11T19:42:00.421Z,94978.53
2023-03-11T19:44:32.450Z,94978.41
2023-03-11T19:47:04.093Z,94974.22
2023-03-11T19:49:35.585Z,94987.19
2023-03-11T19:52:11.880Z,94992.81
2023-03-11T19:54:43.472Z,94987.53
2023-03-11T19:57:18.563Z,94988.41
2023-03-11T19:59:50.069Z,94988.72
2023-03-11T20:02:22.198Z,94989.84
2023-03-11T20:04:53.865Z,94988.19
2023-03-11T20:07:25.547Z,94996.09
2023-03-11T20:09:57.767Z,94996.44
2023-03-11T20:12:29.429Z,95003.34
2023-03-11T20:15:01.201Z,95011.59
2023-03-11T20:17:32.933Z,95007.22
2023-03-11T20:20:06.092Z,95015.78
2023-03-11T20:22:38.733Z,95015.44
2023-03-11T20:25:11.682Z,95011.94
2023-03-11T20:27:43.248Z,95013.81
2023-03-11T20:30:21.048Z,95019.94
2023-03-11T20:32:54.575Z,95016.31
2023-03-11T20:35:26.477Z,95014.91
2023-03-11T20:37:59.645Z,95018.09
2023-03-11T20:40:31.400Z,95015.44
2023-03-11T20:43:03.410Z,95006.13
2023-03-11T20:45:37.777Z,95012.03
2023-03-11T20:48:09.616Z,95006.00
2023-03-11T20:50:41.679Z,95011.38
2023-03-11T20:53:13.324Z,95010.28
2023-03-11T20:55:45.052Z,95017.59
2023-03-11T20:58:18.188Z,95014.00
2023-03-11T21:00:49.755Z,95010.38
2023-03-11T21:03:21.672Z,95017.84
2023-03-11T21:05:53.367Z,95015.97
2023-03-11T21:08:25.246Z,95025.66
2023-03-11T21:11:03.356Z,95019.03
2023-03-11T21:13:36.189Z,95024.44
2023-03-11T21:16:13.153Z,95025.41
2023-03-11T21:18:49.477Z,95023.00
2023-03-11T21:21:21.568Z,95031.00
2023-03-11T21:23:54.710Z,95033.88
2023-03-11T21:26:26.415Z,95030.47
2023-03-11T21:28:58.055Z,95031.59
2023-03-11T21:31:30.182Z,95035.53
2023-03-11T21:34:04.261Z,95037.06
2023-03-11T21:36:36.480Z,95031.47
2023-03-11T21:39:09.032Z,95035.19
2023-03-11T21:41:41.389Z,95037.81
2023-03-11T21:44:12.776Z,95032.56
2023-03-11T21:46:45.188Z,95042.56
2023-03-11T21:49:19.779Z,95034.97
2023-03-11T21:51:52.419Z,95035.19
2023-03-11T21:54:25.026Z,95039.25
2023-03-11T21:56:56.873Z,95035.28
2023-03-11T21:59:29.706Z,95045.81
2023-03-11T22:02:03.281Z,95039.66
2023-03-11T22:04:35.443Z,95036.38
2023-03-11T22:07:07.321Z,95036.25
2023-03-11T22:09:38.971Z,95042.38
2023-03-11T22:12:10.703Z,95026.78
2023-03-11T22:14:42.503Z,95025.44
2023-03-11T22:17:14.502Z,95034.09
2023-03-11T22:19:46.246Z,95037.84
2023-03-11T22:22:17.839Z,95038.81
2023-03-11T22:24:49.351Z,95046.84
2023-03-11T22:27:20.782Z,95040.94
2023-03-11T22:29:52.486Z,95042.47
2023-03-11T22:32:24.039Z,95045.63
2023-03-11T22:34:55.926Z,95045.63
2023-03-11T22:37:28.290Z,95042.50
2023-03-11T22:39:59.828Z,95039.53
2023-03-11T22:42:31.460Z,95040.41
2023-03-11T22:45:04.850Z,95042.78
2023-03-11T22:47:36.399Z,95049.69
2023-03-11T22:50:08.850Z,95054.25
2023-03-11T22:52:40.238Z,95063.97
2023-03-11T22:55:11.888Z,95068.72
2023-03-11T22:57:43.434Z,95070.00
2023-03-11T23:00:21.578Z,95067.94
2023-03-11T23:02:55.492Z,95070.56
2023-03-11T23:05:27.309Z,95071.22
2023-03-11T23:07:58.819Z,95065.75
2023-03-11T23:10:30.326Z,95071.47
2023-03-11T23:13:02.169Z,95061.84
2023-03-11T23:15:33.698Z,95067.41
2023-03-11T23:18:05.574Z,95070.50
2023-03-11T23:20:39.356Z,95073.13
2023-03-11T23:23:12.092Z,95071.47
2023-03-11T23:25:43.733Z,95065.19
2023-03-11T23:28:15.325Z,95070.94
2023-03-11T23:30:46.988Z,95066.16
2023-03-11T23:33:18.559Z,95069.91
2023-03-11T23:35:50.321Z,95068.38
2023-03-11T23:38:21.855Z,95061.31
2023-03-11T23:40:53.423Z,95064.75
2023-03-11T23:43:25.815Z,95077.78
2023-03-11T23:45:57.304Z,95078.44
2023-03-11T23:48:29.204Z,95083.16
2023-03-11T23:51:00.771Z,95079.66
2023-03-11T23:53:32.817Z,95082.94
2023-03-11T23:56:17.049Z,95087.41
2023-03-11T23:58:48.703Z,95090.22
